Newark, New Jersey
Current Conditions -  °F | °C
As of 1:51 PM on Saturday 25 Oct 2014 (Local Time) from KEWR Reporting Station
Scattered Clouds Scattered Clouds  
Wind Chill: 20°   Ceiling: Unl
Heat Index: 20°   Visibility: 10mi
Dew Point:   Wind: 8mph
Humidity: 39%   Direction: 230°SW
Pressure: 29.73"   Gusts: NA
Location:  40.73°N, 74.17°W
Report Text: KEWR 251751Z 23007KT 10SM FEW050 SCT250 20/06 A2973 RMK AO2 SLP068 T02000056 10200 20094 58040
Loading
Personal Weather Stations






























Interactive Weather Map
Tropical Storm Tracking
New forecast layout! Learn more

10-Day Weather Forecast

Advertisements
Track Severe Weather on mobile